Time;durP1;ratioP1;P1;durP2;ratioP2;P2;SDS_P1;SDS_P2;PMS_P1;PMS_P2;Temp;Humidity;BMP_temperature;BMP_pressure;BME280_temperature;BME280_humidity;BME280_pressure;Samples;Min_cycle;Max_cycle;Signal;HPM_P1;HPM_P2
2022/03/02 00:02:23;;;;;;;46.55;31.30;;;;;;;;;;6073348;23;20046;-78
2022/03/02 00:04:49;;;;;;;43.65;29.92;;;;;;;;;;6097365;23;20019;-78
2022/03/02 00:07:15;;;;;;;43.92;29.63;;;;;;;;;;6097498;23;20053;-78
2022/03/02 00:09:41;;;;;;;45.03;31.73;;;;;;;;;;6072989;23;20010;-78
2022/03/02 00:12:08;;;;;;;43.25;30.88;;;;;;;;;;6096973;23;20014;-78
2022/03/02 00:14:34;;;;;;;45.13;30.70;;;;;;;;;;6097276;23;20014;-78
2022/03/02 00:17:00;;;;;;;44.17;30.15;;;;;;;;;;6097424;23;20144;-78
2022/03/02 00:19:26;;;;;;;46.28;30.67;;;;;;;;;;6096477;23;20021;-78
2022/03/02 00:21:52;;;;;;;47.85;31.70;;;;;;;;;;6096929;23;20586;-78
2022/03/02 00:24:20;;;;;;;44.33;29.50;;;;;;;;;;6098926;23;20014;-78
2022/03/02 00:26:46;;;;;;;46.45;32.28;;;;;;;;;;6097072;23;20077;-78
2022/03/02 00:29:12;;;;;;;42.75;29.77;;;;;;;;;;6072919;23;20096;-78
2022/03/02 00:31:38;;;;;;;45.80;29.50;;;;;;;;;;6097296;23;20018;-78
2022/03/02 00:34:04;;;;;;;44.58;28.75;;;;;;;;;;6073386;23;20018;-78
2022/03/02 00:36:30;;;;;;;43.40;28.63;;;;;;;;;;6073486;23;20084;-78
2022/03/02 00:38:56;;;;;;;40.22;29.05;;;;;;;;;;6097087;23;20018;-78
2022/03/02 00:41:22;;;;;;;43.55;29.35;;;;;;;;;;6097317;23;20014;-78
2022/03/02 00:43:48;;;;;;;44.55;29.52;;;;;;;;;;6073056;23;20026;-79
2022/03/02 00:46:15;;;;;;;44.65;29.83;;;;;;;;;;6097236;23;20013;-78
2022/03/02 00:48:41;;;;;;;44.17;29.88;;;;;;;;;;6097392;23;20057;-79
2022/03/02 00:51:07;;;;;;;43.08;28.95;;;;;;;;;;6098668;23;20021;-78
2022/03/02 00:53:34;;;;;;;43.78;28.92;;;;;;;;;;6098668;23;20320;-78
2022/03/02 00:56:00;;;;;;;43.30;28.83;;;;;;;;;;6099034;23;20017;-78
2022/03/02 00:58:26;;;;;;;43.70;30.27;;;;;;;;;;6075082;23;20018;-78
2022/03/02 01:00:52;;;;;;;45.28;30.75;;;;;;;;;;6074402;23;20036;-78
2022/03/02 01:03:18;;;;;;;45.38;30.73;;;;;;;;;;6098686;23;20329;-78
2022/03/02 01:05:44;;;;;;;41.95;29.52;;;;;;;;;;6098899;23;20021;-78
2022/03/02 01:08:10;;;;;;;40.55;28.95;;;;;;;;;;6098954;23;20010;-78
2022/03/02 01:10:36;;;;;;;43.30;29.45;;;;;;;;;;6098554;23;20025;-78
2022/03/02 01:13:02;;;;;;;44.15;29.63;;;;;;;;;;6074985;23;20016;-79
2022/03/02 01:15:29;;;;;;;45.20;30.05;;;;;;;;;;6098364;23;20092;-78
2022/03/02 01:17:55;;;;;;;45.42;30.20;;;;;;;;;;6074280;23;20065;-78
2022/03/02 01:20:21;;;;;;;46.03;31.10;;;;;;;;;;6073689;23;20010;-79
2022/03/02 01:22:47;;;;;;;46.28;30.83;;;;;;;;;;6098425;23;20440;-79
2022/03/02 01:25:13;;;;;;;45.65;30.52;;;;;;;;;;6098411;23;20022;-79
2022/03/02 01:27:40;;;;;;;45.17;30.83;;;;;;;;;;6098396;23;20384;-79
2022/03/02 01:30:06;;;;;;;46.28;31.30;;;;;;;;;;6097931;23;20026;-79
2022/03/02 01:32:32;;;;;;;50.20;32.25;;;;;;;;;;6098454;23;20014;-78
2022/03/02 01:34:58;;;;;;;49.10;31.25;;;;;;;;;;6098635;23;20021;-78
2022/03/02 01:37:25;;;;;;;51.30;33.85;;;;;;;;;;6074432;23;20018;-78
2022/03/02 01:39:51;;;;;;;51.42;33.63;;;;;;;;;;6073985;23;20029;-78
2022/03/02 01:42:17;;;;;;;50.58;32.28;;;;;;;;;;6074415;23;20352;-78
2022/03/02 01:44:43;;;;;;;47.55;31.88;;;;;;;;;;6098431;23;20014;-79
2022/03/02 01:47:13;;;;;;;52.97;34.22;;;;;;;;;;6098028;23;20126;-79
2022/03/02 01:49:39;;;;;;;49.35;33.10;;;;;;;;;;6098123;23;20021;-78
2022/03/02 01:52:05;;;;;;;49.60;33.10;;;;;;;;;;6098330;23;20014;-78
2022/03/02 01:54:31;;;;;;;50.00;32.75;;;;;;;;;;6074454;23;20018;-78
2022/03/02 01:56:57;;;;;;;50.90;31.65;;;;;;;;;;6098391;23;20355;-78
2022/03/02 01:59:23;;;;;;;53.38;34.55;;;;;;;;;;6097928;23;20045;-78
2022/03/02 02:01:49;;;;;;;48.85;33.00;;;;;;;;;;6098155;23;20041;-78
2022/03/02 02:04:15;;;;;;;51.10;35.33;;;;;;;;;;6098315;23;20348;-78
2022/03/02 02:06:41;;;;;;;54.55;35.72;;;;;;;;;;6097623;23;20014;-78
2022/03/02 02:09:08;;;;;;;49.83;32.92;;;;;;;;;;6097937;23;20033;-78
2022/03/02 02:11:33;;;;;;;52.95;35.28;;;;;;;;;;6098396;23;20021;-78
2022/03/02 02:14:00;;;;;;;50.47;34.28;;;;;;;;;;6097798;23;20014;-78
2022/03/02 02:16:26;;;;;;;55.83;35.50;;;;;;;;;;6098151;23;20098;-78
2022/03/02 02:18:55;;;;;;;55.38;37.65;;;;;;;;;;6073490;23;20105;-78
2022/03/02 02:21:21;;;;;;;47.17;33.42;;;;;;;;;;6097881;23;20452;-78
2022/03/02 02:23:47;;;;;;;55.17;37.40;;;;;;;;;;6074154;23;20383;-78
2022/03/02 02:26:13;;;;;;;57.63;38.25;;;;;;;;;;6097991;23;20372;-78
2022/03/02 02:28:40;;;;;;;55.25;37.85;;;;;;;;;;6097761;23;20025;-78
2022/03/02 02:31:06;;;;;;;54.80;37.38;;;;;;;;;;6097624;23;20085;-78
2022/03/02 02:33:32;;;;;;;55.00;37.78;;;;;;;;;;6097732;23;20017;-78
2022/03/02 02:35:58;;;;;;;54.72;37.25;;;;;;;;;;6097837;23;20021;-78
2022/03/02 02:38:24;;;;;;;55.58;38.28;;;;;;;;;;6097939;23;20089;-78
2022/03/02 02:40:50;;;;;;;53.30;37.78;;;;;;;;;;6073721;23;20064;-78
2022/03/02 02:43:18;;;;;;;57.25;38.70;;;;;;;;;;6097717;23;20053;-78
2022/03/02 02:45:44;;;;;;;55.20;37.38;;;;;;;;;;6097857;23;20633;-78
2022/03/02 02:48:10;;;;;;;56.30;38.30;;;;;;;;;;6098094;23;20020;-78
2022/03/02 02:50:36;;;;;;;60.95;40.22;;;;;;;;;;6097488;23;20013;-78
2022/03/02 02:53:03;;;;;;;58.50;40.95;;;;;;;;;;6097840;23;20408;-78
2022/03/02 02:55:30;;;;;;;56.35;36.50;;;;;;;;;;6097972;23;20013;-78
2022/03/02 02:57:56;;;;;;;56.22;37.15;;;;;;;;;;6097835;23;20017;-78
2022/03/02 03:00:24;;;;;;;56.65;38.22;;;;;;;;;;6097332;23;20088;-78
2022/03/02 03:02:51;;;;;;;58.53;39.92;;;;;;;;;;6097818;23;20045;-78
2022/03/02 03:05:18;;;;;;;61.92;39.75;;;;;;;;;;6073361;23;20337;-78
2022/03/02 03:07:44;;;;;;;59.30;37.70;;;;;;;;;;6097726;23;20009;-78
2022/03/02 03:10:11;;;;;;;58.30;39.05;;;;;;;;;;6073855;23;20009;-78
2022/03/02 03:12:38;;;;;;;60.10;38.17;;;;;;;;;;6097757;23;20014;-78
2022/03/02 03:15:05;;;;;;;54.88;37.22;;;;;;;;;;6097030;23;20068;-78
2022/03/02 03:17:31;;;;;;;57.30;38.22;;;;;;;;;;6097310;23;20467;-78
2022/03/02 03:19:57;;;;;;;53.83;36.92;;;;;;;;;;6097721;23;20097;-78
2022/03/02 03:22:23;;;;;;;58.55;39.40;;;;;;;;;;6097600;23;20045;-78
2022/03/02 03:24:49;;;;;;;58.88;39.70;;;;;;;;;;6073577;23;20021;-78
2022/03/02 03:27:15;;;;;;;55.45;39.30;;;;;;;;;;6097322;23;20348;-78
2022/03/02 03:29:41;;;;;;;59.45;39.15;;;;;;;;;;6097755;23;20084;-78
2022/03/02 03:32:07;;;;;;;58.28;39.08;;;;;;;;;;6097594;23;20010;-78
2022/03/02 03:34:34;;;;;;;53.38;38.00;;;;;;;;;;6097121;23;20018;-78
2022/03/02 03:37:00;;;;;;;58.45;38.58;;;;;;;;;;6097397;23;20022;-78
2022/03/02 03:39:26;;;;;;;55.97;37.88;;;;;;;;;;6073367;23;20056;-78
2022/03/02 03:41:52;;;;;;;54.95;37.95;;;;;;;;;;6097490;23;20022;-78
2022/03/02 03:44:18;;;;;;;55.58;36.45;;;;;;;;;;6097547;23;20071;-78
2022/03/02 03:46:44;;;;;;;57.17;37.28;;;;;;;;;;6073343;23;20511;-78
2022/03/02 03:49:09;;;;;;;65.43;40.38;;;;;;;;;;6097352;23;20100;-78
2022/03/02 03:51:36;;;;;;;61.78;40.90;;;;;;;;;;6073221;23;20022;-78
2022/03/02 03:54:02;;;;;;;54.67;37.47;;;;;;;;;;6097438;23;20575;-78
2022/03/02 03:56:30;;;;;;;63.25;40.80;;;;;;;;;;6097340;23;20117;-78
2022/03/02 03:58:58;;;;;;;55.90;37.28;;;;;;;;;;6097195;23;20387;-77
2022/03/02 04:01:24;;;;;;;56.50;39.15;;;;;;;;;;6097242;23;20651;-78
2022/03/02 04:03:50;;;;;;;59.28;40.22;;;;;;;;;;6073078;23;20069;-78
2022/03/02 04:06:16;;;;;;;58.05;39.00;;;;;;;;;;6097253;23;20018;-78
2022/03/02 04:08:42;;;;;;;56.75;38.97;;;;;;;;;;6073404;23;20507;-78
2022/03/02 04:11:08;;;;;;;56.58;37.22;;;;;;;;;;6097230;23;20010;-78
2022/03/02 04:13:34;;;;;;;57.45;37.67;;;;;;;;;;6097079;23;20022;-78
2022/03/02 04:16:00;;;;;;;56.03;37.80;;;;;;;;;;6097282;23;20020;-78
2022/03/02 04:18:26;;;;;;;56.35;36.95;;;;;;;;;;6097343;23;20022;-78
2022/03/02 04:20:52;;;;;;;61.42;41.45;;;;;;;;;;6072989;23;20384;-78
2022/03/02 04:23:18;;;;;;;62.33;40.30;;;;;;;;;;6097095;23;20014;-77
2022/03/02 04:25:44;;;;;;;55.35;38.28;;;;;;;;;;6099137;23;20018;-77
2022/03/02 04:28:10;;;;;;;61.75;40.67;;;;;;;;;;6098790;23;20024;-78
2022/03/02 04:30:37;;;;;;;63.78;41.20;;;;;;;;;;6099294;23;20024;-77
2022/03/02 04:33:03;;;;;;;62.13;38.47;;;;;;;;;;6099087;23;20134;-78
2022/03/02 04:35:31;;;;;;;57.70;36.92;;;;;;;;;;6098899;23;20014;-78
2022/03/02 04:37:57;;;;;;;56.15;37.85;;;;;;;;;;6074516;23;20064;-78
2022/03/02 04:40:23;;;;;;;59.50;38.92;;;;;;;;;;6099003;23;20628;-77
2022/03/02 04:42:50;;;;;;;69.30;41.97;;;;;;;;;;6075003;23;20456;-78
2022/03/02 04:45:16;;;;;;;59.22;37.50;;;;;;;;;;6098844;23;20017;-77
2022/03/02 04:47:42;;;;;;;56.08;38.42;;;;;;;;;;6074655;23;20017;-78
2022/03/02 04:50:09;;;;;;;58.30;38.22;;;;;;;;;;6098729;23;20014;-77
2022/03/02 04:52:35;;;;;;;57.55;39.90;;;;;;;;;;6074554;23;20014;-77
2022/03/02 04:55:07;;;;;;;60.67;39.42;;;;;;;;;;6074860;23;20017;-77
2022/03/02 04:57:53;;;;;;;60.78;39.30;;;;;;;;;;6098877;23;20056;-77
2022/03/02 05:00:20;;;;;;;54.70;37.13;;;;;;;;;;6098780;23;20017;-77
2022/03/02 05:02:46;;;;;;;58.38;37.83;;;;;;;;;;6074545;23;20060;-77
2022/03/02 05:05:13;;;;;;;60.00;39.38;;;;;;;;;;6074558;23;20014;-78
2022/03/02 05:07:40;;;;;;;60.05;37.97;;;;;;;;;;6098472;23;20010;-77
2022/03/02 05:10:07;;;;;;;58.95;40.25;;;;;;;;;;6074593;23;20602;-77
2022/03/02 05:12:33;;;;;;;68.15;41.72;;;;;;;;;;6098908;23;20467;-77
2022/03/02 05:14:59;;;;;;;63.38;39.45;;;;;;;;;;6098861;23;20022;-77
2022/03/02 05:17:25;;;;;;;65.93;41.67;;;;;;;;;;6074714;23;20014;-77
2022/03/02 05:19:52;;;;;;;64.10;39.83;;;;;;;;;;6074671;23;20017;-77
2022/03/02 05:22:18;;;;;;;62.72;39.55;;;;;;;;;;6098490;23;20452;-77
2022/03/02 05:24:44;;;;;;;58.78;39.72;;;;;;;;;;6074378;23;20018;-77
2022/03/02 05:27:10;;;;;;;58.25;39.70;;;;;;;;;;6098056;23;20352;-77
2022/03/02 05:29:36;;;;;;;66.30;41.13;;;;;;;;;;6098330;23;20017;-77
2022/03/02 05:32:03;;;;;;;68.25;41.38;;;;;;;;;;6098361;23;20113;-77
2022/03/02 05:34:29;;;;;;;68.22;39.65;;;;;;;;;;6098483;23;20053;-77
2022/03/02 05:36:56;;;;;;;69.13;40.33;;;;;;;;;;6074380;23;20026;-77
2022/03/02 05:39:25;;;;;;;64.78;41.92;;;;;;;;;;6074606;23;20022;-77
2022/03/02 05:41:51;;;;;;;61.13;39.08;;;;;;;;;;6098596;23;20014;-77
2022/03/02 05:44:17;;;;;;;66.22;40.97;;;;;;;;;;6074263;23;20445;-77
2022/03/02 05:46:43;;;;;;;62.47;41.58;;;;;;;;;;6074300;23;20010;-77
2022/03/02 05:49:09;;;;;;;64.90;39.35;;;;;;;;;;6074480;23;20076;-77
2022/03/02 05:51:36;;;;;;;63.85;40.92;;;;;;;;;;6074259;23;20025;-77
2022/03/02 05:54:03;;;;;;;62.55;40.13;;;;;;;;;;6074313;23;20017;-77
2022/03/02 05:56:30;;;;;;;59.55;38.92;;;;;;;;;;6074229;23;20390;-77
2022/03/02 05:58:56;;;;;;;61.90;40.00;;;;;;;;;;6097022;23;20033;-77
2022/03/02 06:01:22;;;;;;;62.90;39.78;;;;;;;;;;6098410;23;20018;-77
2022/03/02 06:03:49;;;;;;;66.43;41.40;;;;;;;;;;6098012;23;20448;-77
2022/03/02 06:06:15;;;;;;;67.68;41.75;;;;;;;;;;6074453;23;20467;-77
2022/03/02 06:08:41;;;;;;;75.05;44.67;;;;;;;;;;6098263;23;20010;-77
2022/03/02 06:11:07;;;;;;;61.65;42.33;;;;;;;;;;6097845;23;20020;-77
2022/03/02 06:13:34;;;;;;;70.15;42.58;;;;;;;;;;6097947;23;20464;-77
2022/03/02 06:16:01;;;;;;;66.13;43.65;;;;;;;;;;6074196;23;20084;-77
2022/03/02 06:18:27;;;;;;;61.30;40.33;;;;;;;;;;6098083;23;20046;-77
2022/03/02 06:20:59;;;;;;;66.72;42.20;;;;;;;;;;6073899;23;20013;-77
2022/03/02 06:23:26;;;;;;;70.47;41.90;;;;;;;;;;6098040;23;20017;-77
2022/03/02 06:25:52;;;;;;;67.72;42.17;;;;;;;;;;6097965;23;20010;-77
2022/03/02 06:28:18;;;;;;;68.20;41.72;;;;;;;;;;6097813;23;20026;-77
2022/03/02 06:30:44;;;;;;;61.65;38.75;;;;;;;;;;6097650;23;20053;-77
2022/03/02 06:33:13;;;;;;;66.55;41.17;;;;;;;;;;6096088;23;20089;-77
2022/03/02 06:35:39;;;;;;;65.90;38.95;;;;;;;;;;6097689;23;20041;-78
2022/03/02 06:38:05;;;;;;;66.30;40.80;;;;;;;;;;6071801;23;20356;-78
2022/03/02 06:40:31;;;;;;;65.80;41.25;;;;;;;;;;6071390;23;20084;-77
2022/03/02 06:43:02;;;;;;;70.43;41.03;;;;;;;;;;6071060;23;20015;-77
2022/03/02 06:45:52;;;;;;;69.55;41.72;;;;;;;;;;6094928;23;20021;-77
2022/03/02 06:48:22;;;;;;;72.63;43.42;;;;;;;;;;6087079;23;20077;-77
2022/03/02 06:50:50;;;;;;;73.05;43.78;;;;;;;;;;6095147;23;20013;-78
2022/03/02 06:53:16;;;;;;;79.63;47.25;;;;;;;;;;6095260;23;20456;-77
2022/03/02 06:55:43;;;;;;;74.35;44.22;;;;;;;;;;6094834;23;20097;-78
2022/03/02 06:58:11;;;;;;;80.43;47.10;;;;;;;;;;6094758;23;20014;-78
2022/03/02 07:00:37;;;;;;;79.05;46.38;;;;;;;;;;6070658;23;20049;-78
2022/03/02 07:03:11;;;;;;;63.72;41.60;;;;;;;;;;6094577;23;20084;-78
2022/03/02 07:05:37;;;;;;;76.20;47.05;;;;;;;;;;6094300;23;20088;-78
2022/03/02 07:08:04;;;;;;;71.05;45.65;;;;;;;;;;6094736;23;20065;-78
2022/03/02 07:10:34;;;;;;;71.13;42.95;;;;;;;;;;6094464;23;20021;-78
2022/03/02 07:13:01;;;;;;;75.00;46.45;;;;;;;;;;6070910;23;20014;-77
2022/03/02 07:15:28;;;;;;;71.18;43.78;;;;;;;;;;6094444;23;20329;-77
2022/03/02 07:17:54;;;;;;;76.97;47.67;;;;;;;;;;6070395;23;20017;-78
2022/03/02 07:20:20;;;;;;;79.53;47.63;;;;;;;;;;6070670;23;20093;-78
2022/03/02 07:22:52;;;;;;;78.55;47.90;;;;;;;;;;6093265;23;20100;-78
2022/03/02 07:25:18;;;;;;;82.72;49.47;;;;;;;;;;6069965;23;20014;-78
2022/03/02 07:27:45;;;;;;;107.28;71.53;;;;;;;;;;6069674;23;20404;-77
2022/03/02 07:30:12;;;;;;;89.43;55.17;;;;;;;;;;6093972;23;20069;-77
2022/03/02 07:32:41;;;;;;;88.47;55.28;;;;;;;;;;6070588;23;20052;-78
2022/03/02 07:35:08;;;;;;;79.55;49.33;;;;;;;;;;6070344;23;20259;-78
2022/03/02 07:37:34;;;;;;;89.13;54.47;;;;;;;;;;6094118;23;20045;-78
2022/03/02 07:40:00;;;;;;;74.82;46.72;;;;;;;;;;6094357;23;20315;-77
2022/03/02 07:42:27;;;;;;;76.43;48.38;;;;;;;;;;6094265;23;20088;-78
2022/03/02 07:44:54;;;;;;;74.65;46.40;;;;;;;;;;6070239;23;20021;-78
2022/03/02 07:47:20;;;;;;;77.78;47.50;;;;;;;;;;6094304;23;20010;-78
2022/03/02 07:49:46;;;;;;;77.05;49.63;;;;;;;;;;6070348;23;20033;-78
2022/03/02 07:52:14;;;;;;;78.20;46.63;;;;;;;;;;6094069;23;20014;-78
2022/03/02 07:54:41;;;;;;;69.85;46.00;;;;;;;;;;6070547;23;20473;-78
2022/03/02 07:57:07;;;;;;;77.55;47.78;;;;;;;;;;6094349;23;20025;-78
2022/03/02 07:59:38;;;;;;;82.07;49.17;;;;;;;;;;6095172;23;20049;-78
2022/03/02 08:02:05;;;;;;;77.60;47.97;;;;;;;;;;6096364;23;20022;-79
2022/03/02 08:04:31;;;;;;;72.13;46.30;;;;;;;;;;6072090;23;20049;-78
2022/03/02 08:06:57;;;;;;;71.47;44.80;;;;;;;;;;6072377;23;20376;-77
2022/03/02 08:09:23;;;;;;;63.97;42.45;;;;;;;;;;6096232;23;20346;-78
2022/03/02 08:11:50;;;;;;;68.18;44.03;;;;;;;;;;6072084;23;20014;-78
2022/03/02 08:14:21;;;;;;;71.05;46.33;;;;;;;;;;6095965;23;20025;-78
2022/03/02 08:16:47;;;;;;;68.10;43.42;;;;;;;;;;6072547;23;20022;-78
2022/03/02 08:19:13;;;;;;;74.72;43.35;;;;;;;;;;6096554;23;20014;-78
2022/03/02 08:21:41;;;;;;;74.97;46.17;;;;;;;;;;6095879;23;20021;-79
2022/03/02 08:24:08;;;;;;;71.95;43.47;;;;;;;;;;6096451;23;20014;-77
2022/03/02 08:26:37;;;;;;;63.40;42.47;;;;;;;;;;6096307;23;20037;-79
2022/03/02 08:29:07;;;;;;;68.18;42.47;;;;;;;;;;6096044;23;20025;-78
2022/03/02 08:31:35;;;;;;;69.97;43.72;;;;;;;;;;6096373;23;20396;-78
2022/03/02 08:34:02;;;;;;;60.45;41.10;;;;;;;;;;6097239;23;20017;-79
2022/03/02 08:36:33;;;;;;;62.05;43.55;;;;;;;;;;6096482;23;20014;-79
2022/03/02 08:39:00;;;;;;;60.22;39.17;;;;;;;;;;6096297;23;20452;-79
2022/03/02 08:41:26;;;;;;;67.60;45.17;;;;;;;;;;6120227;23;20022;-79
2022/03/02 08:43:52;;;;;;;65.97;41.97;;;;;;;;;;6072487;23;20026;-79
2022/03/02 08:46:18;;;;;;;81.70;57.78;;;;;;;;;;6096640;23;20041;-79
2022/03/02 08:48:44;;;;;;;67.32;44.08;;;;;;;;;;6095995;23;20207;-79
2022/03/02 08:51:10;;;;;;;56.65;36.55;;;;;;;;;;6072192;23;20092;-78
2022/03/02 08:53:38;;;;;;;57.58;40.13;;;;;;;;;;6096161;23;20467;-78
2022/03/02 08:56:06;;;;;;;57.85;36.75;;;;;;;;;;6095924;23;20352;-79
2022/03/02 08:58:32;;;;;;;52.22;34.42;;;;;;;;;;6072149;23;20131;-78
2022/03/02 09:00:59;;;;;;;50.15;32.97;;;;;;;;;;6095773;23;20014;-79
2022/03/02 09:03:25;;;;;;;49.33;33.20;;;;;;;;;;6095741;23;20438;-80
2022/03/02 09:05:52;;;;;;;47.58;33.72;;;;;;;;;;6071830;23;20021;-79
2022/03/02 09:08:18;;;;;;;50.90;32.40;;;;;;;;;;6095810;23;20021;-78
2022/03/02 09:10:44;;;;;;;44.83;30.35;;;;;;;;;;6095645;23;20036;-79
2022/03/02 09:13:11;;;;;;;49.70;33.85;;;;;;;;;;6071715;23;20014;-79
2022/03/02 09:15:40;;;;;;;48.80;30.65;;;;;;;;;;6071775;23;20016;-80
2022/03/02 09:18:06;;;;;;;44.70;30.35;;;;;;;;;;6095384;23;20464;-79
2022/03/02 09:20:33;;;;;;;45.03;31.23;;;;;;;;;;6095788;23;20033;-79
2022/03/02 09:23:01;;;;;;;42.78;29.95;;;;;;;;;;6071616;23;20014;-80
2022/03/02 09:25:29;;;;;;;43.53;29.58;;;;;;;;;;6071430;23;20021;-78
2022/03/02 09:27:56;;;;;;;41.42;28.30;;;;;;;;;;6071653;23;20018;-79
2022/03/02 09:30:22;;;;;;;39.47;28.13;;;;;;;;;;6095953;23;20045;-79
2022/03/02 09:32:52;;;;;;;41.58;29.17;;;;;;;;;;6095515;23;20089;-80
2022/03/02 09:35:20;;;;;;;40.38;28.25;;;;;;;;;;6071732;23;20025;-80
2022/03/02 09:37:49;;;;;;;40.83;28.50;;;;;;;;;;6119752;23;20073;-80
2022/03/02 09:40:29;;;;;;;39.38;28.88;;;;;;;;;;6095843;23;20017;-81
2022/03/02 09:42:57;;;;;;;38.17;27.25;;;;;;;;;;6095378;23;20022;-80
2022/03/02 09:45:25;;;;;;;42.70;28.30;;;;;;;;;;6095421;23;20554;-80
2022/03/02 09:47:53;;;;;;;38.78;27.75;;;;;;;;;;6071616;23;20014;-80
2022/03/02 09:50:20;;;;;;;35.97;27.13;;;;;;;;;;6095398;23;20014;-80
2022/03/02 09:52:47;;;;;;;38.08;28.20;;;;;;;;;;6071066;23;20022;-80
2022/03/02 09:55:14;;;;;;;38.55;27.55;;;;;;;;;;6071630;23;20014;-80
2022/03/02 09:57:44;;;;;;;38.15;27.75;;;;;;;;;;6095489;23;20014;-80
2022/03/02 10:00:11;;;;;;;34.38;25.90;;;;;;;;;;6095411;23;20024;-82
2022/03/02 10:02:44;;;;;;;35.92;27.30;;;;;;;;;;6095190;23;20043;-80
2022/03/02 10:05:20;;;;;;;36.90;26.70;;;;;;;;;;6095343;23;20018;-81
2022/03/02 10:08:04;;;;;;;35.10;25.55;;;;;;;;;;6095072;23;20133;-80
2022/03/02 10:10:38;;;;;;;36.50;26.60;;;;;;;;;;6095320;23;20239;-81
2022/03/02 10:13:08;;;;;;;36.03;25.80;;;;;;;;;;6071515;23;20033;-81
2022/03/02 10:15:34;;;;;;;36.38;26.38;;;;;;;;;;6070944;23;20097;-81
2022/03/02 10:18:01;;;;;;;34.40;24.80;;;;;;;;;;6095194;23;20014;-80
2022/03/02 10:20:28;;;;;;;44.08;34.03;;;;;;;;;;6071006;23;20347;-81
2022/03/02 10:22:57;;;;;;;44.72;35.17;;;;;;;;;;6070801;23;20013;-80
2022/03/02 10:25:27;;;;;;;38.75;28.73;;;;;;;;;;6095262;23;20444;-81
2022/03/02 10:28:02;;;;;;;41.85;31.95;;;;;;;;;;6095027;23;20024;-80
2022/03/02 10:30:32;;;;;;;31.42;23.25;;;;;;;;;;6095213;23;20053;-80
2022/03/02 10:33:02;;;;;;;31.30;23.98;;;;;;;;;;6095345;23;20340;-82
2022/03/02 10:35:29;;;;;;;58.08;43.60;;;;;;;;;;6095135;23;20094;-81
2022/03/02 10:38:04;;;;;;;36.58;27.05;;;;;;;;;;6070729;23;20020;-79
2022/03/02 10:40:32;;;;;;;58.70;42.50;;;;;;;;;;6071065;23;20048;-80
2022/03/02 10:43:00;;;;;;;38.85;29.50;;;;;;;;;;6070863;23;20100;-81
2022/03/02 10:45:27;;;;;;;41.95;30.33;;;;;;;;;;6070719;23;20022;-82
2022/03/02 10:47:54;;;;;;;30.30;24.30;;;;;;;;;;6094782;23;20093;-82
2022/03/02 10:50:20;;;;;;;57.97;39.95;;;;;;;;;;6094770;23;20045;-81
2022/03/02 10:52:47;;;;;;;43.65;31.27;;;;;;;;;;6095075;23;20018;-81
2022/03/02 10:55:13;;;;;;;51.75;39.10;;;;;;;;;;6070697;23;20539;-82
2022/03/02 10:57:40;;;;;;;31.33;24.33;;;;;;;;;;6071042;23;20013;-80
2022/03/02 11:00:17;;;;;;;33.70;26.30;;;;;;;;;;6094785;23;20018;-81
2022/03/02 11:02:44;;;;;;;29.70;23.17;;;;;;;;;;6094654;23;20025;-81
2022/03/02 11:05:11;;;;;;;29.95;24.52;;;;;;;;;;6094531;23;20364;-78
2022/03/02 11:07:38;;;;;;;32.47;24.35;;;;;;;;;;6094485;23;20021;-80
2022/03/02 11:10:05;;;;;;;33.40;26.17;;;;;;;;;;6094867;23;20018;-81
2022/03/02 11:12:31;;;;;;;34.88;27.33;;;;;;;;;;6070564;23;20017;-81
2022/03/02 11:14:58;;;;;;;39.60;30.13;;;;;;;;;;6094696;23;20343;-82
2022/03/02 11:17:24;;;;;;;30.10;23.27;;;;;;;;;;6070534;23;20013;-81
2022/03/02 11:19:50;;;;;;;40.33;30.52;;;;;;;;;;6094406;23;20068;-80
2022/03/02 11:22:18;;;;;;;30.92;24.65;;;;;;;;;;6094485;23;20029;-81
2022/03/02 11:24:44;;;;;;;55.22;39.35;;;;;;;;;;6070372;23;20022;-80
2022/03/02 11:27:30;;;;;;;28.83;22.38;;;;;;;;;;6070650;23;20076;-81
2022/03/02 11:30:02;;;;;;;31.17;23.80;;;;;;;;;;6094563;23;20028;-80
2022/03/02 11:32:31;;;;;;;29.15;23.75;;;;;;;;;;6094502;23;20353;-80
2022/03/02 11:34:58;;;;;;;30.77;24.63;;;;;;;;;;6095050;23;20088;-79
2022/03/02 11:37:24;;;;;;;28.02;22.50;;;;;;;;;;6094504;23;20025;-79
2022/03/02 11:39:50;;;;;;;29.83;23.02;;;;;;;;;;6094962;23;20013;-81
2022/03/02 11:42:17;;;;;;;30.33;22.90;;;;;;;;;;6094587;23;20412;-79
2022/03/02 11:44:44;;;;;;;28.90;22.80;;;;;;;;;;6094668;23;20018;-80
2022/03/02 11:47:17;;;;;;;27.85;22.50;;;;;;;;;;6094568;23;20009;-82
2022/03/02 11:49:44;;;;;;;29.67;22.83;;;;;;;;;;6094427;23;20020;-83
2022/03/02 11:52:12;;;;;;;28.85;22.27;;;;;;;;;;6094453;23;20014;-83
2022/03/02 11:54:39;;;;;;;29.30;22.20;;;;;;;;;;6070983;23;20018;-81
2022/03/02 11:57:05;;;;;;;28.83;22.08;;;;;;;;;;6070528;23;20540;-80
2022/03/02 11:59:31;;;;;;;27.55;20.80;;;;;;;;;;6094535;23;20466;-80
2022/03/02 12:01:57;;;;;;;27.42;21.25;;;;;;;;;;6094320;23;20096;-79
2022/03/02 12:04:23;;;;;;;26.65;20.63;;;;;;;;;;6070285;23;20056;-80
2022/03/02 12:06:53;;;;;;;27.20;22.60;;;;;;;;;;6094215;23;20017;-80
2022/03/02 12:09:23;;;;;;;26.17;21.90;;;;;;;;;;6070478;23;20042;-80
2022/03/02 12:11:49;;;;;;;27.10;21.55;;;;;;;;;;6094092;23;20046;-79
2022/03/02 12:14:16;;;;;;;27.15;21.35;;;;;;;;;;6094411;23;20360;-80
2022/03/02 12:16:51;;;;;;;27.60;21.23;;;;;;;;;;6070453;23;20018;-79
2022/03/02 12:19:21;;;;;;;26.85;21.33;;;;;;;;;;6070645;23;20631;-80
2022/03/02 12:21:48;;;;;;;24.15;20.15;;;;;;;;;;6094073;23;20013;-79
2022/03/02 12:24:19;;;;;;;26.25;19.70;;;;;;;;;;6094002;23;20018;-80
2022/03/02 12:26:49;;;;;;;24.10;19.38;;;;;;;;;;6094155;23;20014;-81
2022/03/02 12:29:16;;;;;;;26.95;21.10;;;;;;;;;;6093980;23;20792;-81
2022/03/02 12:31:46;;;;;;;25.08;20.17;;;;;;;;;;6070141;23;20444;-80
2022/03/02 12:34:16;;;;;;;24.50;19.40;;;;;;;;;;6094515;23;20326;-79
2022/03/02 12:36:45;;;;;;;26.50;20.67;;;;;;;;;;6070422;23;20022;-79
2022/03/02 12:39:11;;;;;;;28.88;21.30;;;;;;;;;;6094354;23;20053;-79
2022/03/02 12:41:38;;;;;;;28.23;21.27;;;;;;;;;;6094348;23;20359;-77
2022/03/02 12:44:04;;;;;;;29.25;20.60;;;;;;;;;;6094511;23;20056;-78
2022/03/02 12:46:31;;;;;;;28.52;21.65;;;;;;;;;;6071809;23;20014;-80
2022/03/02 12:48:57;;;;;;;29.35;21.55;;;;;;;;;;6072217;23;20111;-79
2022/03/02 12:51:26;;;;;;;28.35;20.70;;;;;;;;;;6072558;23;20010;-78
2022/03/02 12:53:52;;;;;;;28.75;22.33;;;;;;;;;;6096371;23;20060;-81
2022/03/02 12:56:18;;;;;;;29.75;21.73;;;;;;;;;;6096658;23;20443;-80
2022/03/02 12:58:44;;;;;;;30.73;22.98;;;;;;;;;;6096263;23;20024;-79
2022/03/02 13:01:11;;;;;;;28.58;21.23;;;;;;;;;;6072691;23;20408;-77
2022/03/02 13:03:40;;;;;;;27.85;20.30;;;;;;;;;;6096351;23;20504;-80
2022/03/02 13:06:08;;;;;;;27.65;20.88;;;;;;;;;;6096298;23;20014;-78
2022/03/02 13:08:40;;;;;;;29.48;21.25;;;;;;;;;;6072380;23;20448;-80
2022/03/02 13:11:21;;;;;;;28.63;21.45;;;;;;;;;;6096484;23;20018;-78
2022/03/02 13:13:47;;;;;;;27.42;20.40;;;;;;;;;;6096968;23;20024;-78
2022/03/02 13:16:19;;;;;;;28.67;20.70;;;;;;;;;;6095989;23;20021;-81
2022/03/02 13:18:46;;;;;;;28.38;21.00;;;;;;;;;;6095235;23;20085;-79
2022/03/02 13:21:17;;;;;;;27.48;20.65;;;;;;;;;;6071703;23;20014;-80
2022/03/02 13:24:04;;;;;;;27.65;21.17;;;;;;;;;;6096110;23;20049;-78
2022/03/02 13:26:30;;;;;;;29.25;22.45;;;;;;;;;;6096330;23;20010;-79
2022/03/02 13:29:06;;;;;;;29.55;21.77;;;;;;;;;;6071755;23;20054;-79
2022/03/02 13:31:50;;;;;;;28.67;21.13;;;;;;;;;;6095971;23;20025;-79
2022/03/02 13:34:17;;;;;;;27.58;20.77;;;;;;;;;;6071079;23;20030;-78
2022/03/02 13:36:54;;;;;;;27.88;21.73;;;;;;;;;;6095563;23;20017;-80
2022/03/02 13:39:27;;;;;;;28.48;20.40;;;;;;;;;;6096303;23;20022;-79
2022/03/02 13:41:56;;;;;;;27.42;20.13;;;;;;;;;;6071890;23;20018;-79
2022/03/02 13:44:26;;;;;;;28.08;20.50;;;;;;;;;;6071945;23;20014;-80
2022/03/02 13:47:15;;;;;;;27.85;20.88;;;;;;;;;;6095675;23;20009;-78
2022/03/02 13:49:50;;;;;;;27.50;20.48;;;;;;;;;;6096000;23;20040;-80
2022/03/02 13:52:19;;;;;;;25.95;19.67;;;;;;;;;;6095444;23;20102;-78
2022/03/02 13:54:46;;;;;;;25.80;18.42;;;;;;;;;;6095805;23;20073;-78
2022/03/02 13:57:17;;;;;;;26.35;18.95;;;;;;;;;;6095137;23;20292;-79
2022/03/02 13:59:43;;;;;;;26.65;19.52;;;;;;;;;;6095693;23;20018;-79
2022/03/02 14:02:10;;;;;;;29.35;20.75;;;;;;;;;;6071370;23;20045;-79
2022/03/02 14:04:42;;;;;;;26.25;19.33;;;;;;;;;;6071471;23;20550;-79
2022/03/02 14:07:08;;;;;;;26.17;18.88;;;;;;;;;;6071445;23;20506;-78
2022/03/02 14:09:35;;;;;;;25.02;18.08;;;;;;;;;;6070902;23;20017;-78
2022/03/02 14:12:04;;;;;;;27.08;19.75;;;;;;;;;;6094767;23;20021;-79
2022/03/02 14:14:32;;;;;;;25.60;19.55;;;;;;;;;;6072089;23;20444;-80
2022/03/02 14:16:58;;;;;;;30.15;20.17;;;;;;;;;;6071543;23;20085;-79
2022/03/02 14:19:24;;;;;;;28.70;21.13;;;;;;;;;;6071873;23;20467;-78